Erlton, New Jersey
Current Conditions -  °F | °C
As of 12:54 PM on Thursday 29 Jan 2015 (Local Time) from KVAY Reporting Station
Broken Clouds Broken Clouds  
Wind Chill: 30°   Ceiling: 12000
Heat Index: 30°   Visibility: 10mi
Dew Point: 11°   Wind: 0mph
Humidity: 45%   Direction: NA
Pressure: 30.23"   Gusts: NA
Location:  39.9312°N, 75.0244°W
Report Text: KVAY 291754Z AUTO 00000KT 10SM BKN120 M01/M12 A3023 RMK AO2 SLP236 T10111117 11011 21128 58035
Loading
Personal Weather Stations






























Interactive Weather Map New forecast layout! Learn more

10-Day Weather Forecast

Advertisements
Track Severe Weather on mobile